Time;durP1;ratioP1;P1;durP2;ratioP2;P2;SDS_P1;SDS_P2;PMS_P1;PMS_P2;Temp;Humidity;BMP_temperature;BMP_pressure;BME280_temperature;BME280_humidity;BME280_pressure;Samples;Min_cycle;Max_cycle;Signal;HPM_P1;HPM_P2
2021/11/28 00:02:21;;;;;;;;;;;;;;;2.83;88.52;96355.57;1775724;80;25938;-84
2021/11/28 00:04:48;;;;;;;;;;;;;;;2.89;88.56;96361.55;1776171;79;24567;-85
2021/11/28 00:07:28;;;;;;;;;;;;;;;2.89;88.54;96355.10;1757773;79;20358;-84
2021/11/28 00:10:03;;;;;;;;;;;;;;;2.84;88.56;96357.66;1780227;79;24891;-84
2021/11/28 00:12:38;;;;;;;;;;;;;;;2.87;88.58;96362.62;1764973;80;22028;-84
2021/11/28 00:14:57;;;;;;;;;;;;;;;2.91;88.62;96373.91;1766990;80;26541;-84
2021/11/28 00:17:24;;;;;;;;;;;;;;;2.91;88.63;96371.33;1765728;79;25977;-84
2021/11/28 00:19:50;;;;;;;;;;;;;;;2.88;88.65;96366.39;1771427;80;20308;-84
2021/11/28 00:22:16;;;;;;;;;;;;;;;2.87;88.66;96375.53;1766256;80;24952;-84
2021/11/28 00:24:47;;;;;;;;;;;;;;;2.82;88.67;96372.00;1772866;80;21956;-85
2021/11/28 00:27:10;;;;;;;;;;;;;;;2.81;88.70;96370.81;1775931;80;26866;-85
2021/11/28 00:29:36;;;;;;;;;;;;;;;2.81;88.71;96366.47;1763975;80;24525;-85
2021/11/28 00:32:03;;;;;;;;;;;;;;;2.82;88.71;96365.54;1760774;80;20410;-85
2021/11/28 00:34:30;;;;;;;;;;;;;;;2.86;88.73;96368.25;1773353;80;24626;-85
2021/11/28 00:36:56;;;;;;;;;;;;;;;2.86;88.76;96368.25;1773054;79;22137;-86
2021/11/28 00:39:22;;;;;;;;;;;;;;;2.81;88.80;96359.19;1769116;80;21854;-85
2021/11/28 00:41:48;;;;;;;;;;;;;;;2.78;88.82;96354.25;1764983;79;25096;-85
2021/11/28 00:44:14;;;;;;;;;;;;;;;2.78;88.82;96360.70;1771879;80;20316;-85
2021/11/28 00:46:43;;;;;;;;;;;;;;;2.78;88.84;96366.67;1765286;79;24770;-85
2021/11/28 00:49:17;;;;;;;;;;;;;;;2.81;88.86;96374.68;1771681;78;22603;-86
2021/11/28 00:51:51;;;;;;;;;;;;;;;2.85;88.90;96384.67;1781515;79;26089;-85
2021/11/28 00:54:17;;;;;;;;;;;;;;;2.88;88.91;96382.36;1784275;79;24532;-85
2021/11/28 00:56:46;;;;;;;;;;;;;;;2.88;88.95;96388.34;1775986;79;20520;-86
2021/11/28 00:59:13;;;;;;;;;;;;;;;2.86;88.95;96394.08;1779454;79;24864;-85
2021/11/28 01:01:39;;;;;;;;;;;;;;;2.89;88.97;96391.77;1784012;79;21979;-85
2021/11/28 01:04:05;;;;;;;;;;;;;;;2.94;89.00;96388.37;1768869;79;26035;-86
2021/11/28 01:06:31;;;;;;;;;;;;;;;2.97;89.04;96386.02;1770308;80;24599;-85
2021/11/28 01:08:58;;;;;;;;;;;;;;;3.03;89.12;96383.00;1780621;79;20299;-85
2021/11/28 01:11:24;;;;;;;;;;;;;;;3.09;89.17;96389.02;1776466;79;24755;-86
2021/11/28 01:13:51;;;;;;;;;;;;;;;3.12;89.20;96390.07;1774553;80;22215;-86
2021/11/28 01:16:19;;;;;;;;;;;;;;;3.17;89.23;96390.56;1780492;80;25993;-85
2021/11/28 01:18:45;;;;;;;;;;;;;;;3.24;89.27;96390.47;1756553;80;25497;-86
2021/11/28 01:21:12;;;;;;;;;;;;;;;3.31;89.32;96391.69;1761607;80;20261;-85
2021/11/28 01:23:38;;;;;;;;;;;;;;;3.35;89.38;96395.69;1741047;81;25174;-85
2021/11/28 01:26:04;;;;;;;;;;;;;;;3.42;89.43;96393.48;1713085;81;22116;-86
2021/11/28 01:28:31;;;;;;;;;;;;;;;3.44;89.46;96387.23;1761855;81;26054;-86
2021/11/28 01:30:57;;;;;;;;;;;;;;;3.38;89.49;96387.72;1741716;81;24422;-86
2021/11/28 01:33:23;;;;;;;;;;;;;;;3.29;89.49;96381.91;1731642;80;20226;-86
2021/11/28 01:35:49;;;;;;;;;;;;;;;3.16;89.50;96384.59;1736993;81;24788;-86
2021/11/28 01:38:19;;;;;;;;;;;;;;;3.10;89.47;96379.87;1779999;80;22057;-86
2021/11/28 01:40:43;;;;;;;;;;;;;;;3.11;89.49;96378.11;1773200;80;26207;-86
2021/11/28 01:43:12;;;;;;;;;;;;;;;3.16;89.49;96378.59;1765557;80;24454;-86
2021/11/28 01:45:37;;;;;;;;;;;;;;;3.19;89.50;96382.23;1764591;80;20495;-86
2021/11/28 01:48:08;;;;;;;;;;;;;;;3.23;89.54;96384.94;1783864;79;24767;-86
2021/11/28 01:50:36;;;;;;;;;;;;;;;3.33;89.54;96385.45;1775103;80;22752;-86
2021/11/28 01:53:03;;;;;;;;;;;;;;;3.35;89.56;96379.70;1768944;80;25804;-86
2021/11/28 01:55:30;;;;;;;;;;;;;;;3.35;89.58;96378.88;1773340;80;24480;-86
2021/11/28 01:57:57;;;;;;;;;;;;;;;3.35;89.59;96374.53;1781902;80;20244;-86
2021/11/28 02:00:25;;;;;;;;;;;;;;;3.40;89.63;96378.07;1774624;80;24760;-86
2021/11/28 02:02:54;;;;;;;;;;;;;;;3.45;89.63;96374.67;1765724;80;21953;-86
2021/11/28 02:05:22;;;;;;;;;;;;;;;3.50;89.65;96369.98;1758800;80;26015;-86
2021/11/28 02:07:52;;;;;;;;;;;;;;;3.57;89.71;96366.47;1772061;79;24458;-86
2021/11/28 02:10:25;;;;;;;;;;;;;;;3.54;89.73;96361.08;1772065;80;20284;-85
2021/11/28 02:12:51;;;;;;;;;;;;;;;3.46;89.73;96354.81;1771592;79;24763;-85
2021/11/28 02:15:18;;;;;;;;;;;;;;;3.45;89.76;96361.75;1779430;80;22011;-85
2021/11/28 02:17:46;;;;;;;;;;;;;;;3.46;89.78;96356.11;1763980;80;26093;-86
2021/11/28 02:20:12;;;;;;;;;;;;;;;3.53;89.81;96351.66;1756790;80;24863;-85
2021/11/28 02:22:40;;;;;;;;;;;;;;;3.66;89.84;96355.42;1775563;79;20209;-85
2021/11/28 02:25:09;;;;;;;;;;;;;;;3.71;89.84;96352.02;1777621;79;25778;-85
2021/11/28 02:27:36;;;;;;;;;;;;;;;3.71;89.86;96348.97;1758915;80;22058;-85
2021/11/28 02:30:03;;;;;;;;;;;;;;;3.70;89.86;96351.23;1779632;80;26026;-85
2021/11/28 02:32:29;;;;;;;;;;;;;;;3.72;89.87;96343.33;1780479;79;24695;-85
2021/11/28 02:34:55;;;;;;;;;;;;;;;3.74;89.86;96341.45;1771847;79;20300;-85
2021/11/28 02:37:22;;;;;;;;;;;;;;;3.74;89.85;96346.16;1770372;80;24803;-85
2021/11/28 02:39:48;;;;;;;;;;;;;;;3.82;89.85;96346.06;1765729;80;22052;-85
2021/11/28 02:42:18;;;;;;;;;;;;;;;3.83;89.83;96349.80;1778810;79;26602;-84
2021/11/28 02:44:45;;;;;;;;;;;;;;;3.88;89.80;96354.62;1766748;79;24457;-84
2021/11/28 02:47:11;;;;;;;;;;;;;;;3.81;89.77;96353.00;1754850;80;20574;-84
2021/11/28 02:49:37;;;;;;;;;;;;;;;3.68;89.73;96363.44;1774471;79;24719;-85
2021/11/28 02:52:09;;;;;;;;;;;;;;;3.59;89.74;96365.44;1775799;80;20479;-85
2021/11/28 02:54:35;;;;;;;;;;;;;;;3.55;89.68;96367.05;1779945;79;26666;-85
2021/11/28 02:57:02;;;;;;;;;;;;;;;3.47;89.68;96358.59;1753226;80;24649;-85
2021/11/28 02:59:28;;;;;;;;;;;;;;;3.37;89.61;96356.33;1758839;80;20292;-85
2021/11/28 03:01:58;;;;;;;;;;;;;;;3.38;89.60;96352.32;1774800;80;24786;-86
2021/11/28 03:04:24;;;;;;;;;;;;;;;3.36;89.57;96352.09;1776824;79;22748;-85
2021/11/28 03:06:50;;;;;;;;;;;;;;;3.44;89.59;96352.34;1775631;80;26000;-86
2021/11/28 03:09:16;;;;;;;;;;;;;;;3.50;89.61;96345.88;1764912;79;24392;-86
2021/11/28 03:11:42;;;;;;;;;;;;;;;3.45;89.63;96349.28;1773896;79;20314;-86
2021/11/28 03:14:09;;;;;;;;;;;;;;;3.33;89.61;96348.43;1753677;79;24946;-84
2021/11/28 03:16:35;;;;;;;;;;;;;;;3.35;89.60;96349.98;1767481;79;22019;-85
2021/11/28 03:19:01;;;;;;;;;;;;;;;3.42;89.61;96347.77;1770515;79;26134;-84
2021/11/28 03:21:29;;;;;;;;;;;;;;;3.36;89.59;96342.58;1765623;79;24539;-84
2021/11/28 03:23:57;;;;;;;;;;;;;;;3.23;89.55;96337.13;1772070;79;20205;-84
2021/11/28 03:26:25;;;;;;;;;;;;;;;3.16;89.52;96333.38;1764794;80;24835;-84
2021/11/28 03:29:01;;;;;;;;;;;;;;;3.13;89.47;96331.83;1763930;80;22022;-85
2021/11/28 03:31:28;;;;;;;;;;;;;;;3.11;89.46;96333.69;1761699;79;26090;-84
2021/11/28 03:33:55;;;;;;;;;;;;;;;3.10;89.45;96336.41;1773209;78;24510;-84
2021/11/28 03:36:22;;;;;;;;;;;;;;;3.10;89.47;96336.41;1760805;80;20279;-84
2021/11/28 03:38:49;;;;;;;;;;;;;;;3.12;89.47;96337.09;1764593;80;24837;-84
2021/11/28 03:41:17;;;;;;;;;;;;;;;3.14;89.51;96337.82;1782512;79;22017;-84
2021/11/28 03:43:46;;;;;;;;;;;;;;;3.13;89.53;96333.58;1779012;79;25984;-84
2021/11/28 03:46:12;;;;;;;;;;;;;;;3.12;89.54;96328.05;1757641;79;24544;-85
2021/11/28 03:48:41;;;;;;;;;;;;;;;3.13;89.58;96325.83;1754138;80;20277;-85
2021/11/28 03:51:07;;;;;;;;;;;;;;;3.13;89.60;96324.53;1751988;80;24931;-85
2021/11/28 03:53:34;;;;;;;;;;;;;;;3.13;89.64;96326.66;1750800;79;22008;-85
2021/11/28 03:56:03;;;;;;;;;;;;;;;3.12;89.64;96327.59;1749863;79;26754;-84
2021/11/28 03:58:28;;;;;;;;;;;;;;;3.07;89.64;96323.69;1756168;79;25305;-85
2021/11/28 04:00:59;;;;;;;;;;;;;;;3.03;89.63;96320.52;1761537;80;20216;-85
2021/11/28 04:03:25;;;;;;;;;;;;;;;3.04;89.63;96317.47;1753241;80;25006;-85
2021/11/28 04:05:53;;;;;;;;;;;;;;;2.99;89.63;96309.23;1756234;79;22763;-85
2021/11/28 04:08:20;;;;;;;;;;;;;;;2.99;89.62;96301.49;1717156;81;26822;-85
2021/11/28 04:10:46;;;;;;;;;;;;;;;3.00;89.64;96291.52;1749691;81;24556;-85
2021/11/28 04:13:15;;;;;;;;;;;;;;;2.98;89.64;96288.21;1749931;80;20166;-85
2021/11/28 04:15:41;;;;;;;;;;;;;;;2.97;89.66;96277.05;1710592;81;24446;-85
2021/11/28 04:18:08;;;;;;;;;;;;;;;2.98;89.71;96270.95;1740314;81;22006;-85
2021/11/28 04:20:34;;;;;;;;;;;;;;;3.00;89.73;96268.27;1749382;79;26037;-84
2021/11/28 04:23:01;;;;;;;;;;;;;;;3.00;89.74;96263.09;1748239;81;24284;-83
2021/11/28 04:25:27;;;;;;;;;;;;;;;3.07;89.80;96268.14;1761686;80;20368;-84
2021/11/28 04:27:53;;;;;;;;;;;;;;;3.17;89.85;96274.27;1761429;81;24817;-84
2021/11/28 04:30:23;;;;;;;;;;;;;;;3.21;89.93;96271.36;1753989;80;22137;-84
2021/11/28 04:32:49;;;;;;;;;;;;;;;3.28;89.99;96279.45;1753695;79;26268;-84
2021/11/28 04:35:15;;;;;;;;;;;;;;;3.38;90.07;96283.02;1755910;81;20492;-84
2021/11/28 04:37:41;;;;;;;;;;;;;;;3.46;90.15;96283.24;1736974;81;20555;-84
2021/11/28 04:40:08;;;;;;;;;;;;;;;3.58;90.24;96277.15;1742610;81;25339;-85
2021/11/28 04:42:35;;;;;;;;;;;;;;;3.64;90.31;96281.03;1743398;79;21985;-84
2021/11/28 04:45:01;;;;;;;;;;;;;;;3.75;90.32;96284.91;1745339;80;26000;-84
2021/11/28 04:47:27;;;;;;;;;;;;;;;3.90;90.39;96284.19;1740715;81;24682;-85
2021/11/28 04:49:53;;;;;;;;;;;;;;;3.99;90.38;96280.87;1761079;81;20250;-84
2021/11/28 04:52:19;;;;;;;;;;;;;;;3.92;90.35;96290.91;1746933;80;24797;-85
2021/11/28 04:54:45;;;;;;;;;;;;;;;3.78;90.32;96290.66;1749529;81;22101;-85
2021/11/28 04:57:12;;;;;;;;;;;;;;;3.63;90.27;96291.02;1720635;82;26072;-85
2021/11/28 04:59:38;;;;;;;;;;;;;;;3.53;90.21;96288.31;1751604;81;25193;-85
2021/11/28 05:02:04;;;;;;;;;;;;;;;3.43;90.13;96289.13;1762759;81;20276;-85
2021/11/28 05:04:30;;;;;;;;;;;;;;;3.31;90.07;96280.53;1759377;80;25090;-85
2021/11/28 05:06:56;;;;;;;;;;;;;;;3.21;90.01;96280.41;1744306;81;21996;-85
2021/11/28 05:09:24;;;;;;;;;;;;;;;3.17;89.93;96276.84;1756283;81;26778;-85
2021/11/28 05:11:50;;;;;;;;;;;;;;;3.14;89.89;96278.38;1747536;81;25489;-84
2021/11/28 05:14:16;;;;;;;;;;;;;;;3.10;89.84;96279.56;1748765;81;20266;-85
2021/11/28 05:16:43;;;;;;;;;;;;;;;3.15;89.84;96272.28;1762669;81;24776;-85
2021/11/28 05:19:10;;;;;;;;;;;;;;;3.20;89.87;96264.54;1758565;79;22006;-84
2021/11/28 05:21:36;;;;;;;;;;;;;;;3.20;89.88;96272.77;1761929;81;26000;-85
2021/11/28 05:24:02;;;;;;;;;;;;;;;3.32;89.94;96274.43;1761556;79;25767;-85
2021/11/28 05:26:28;;;;;;;;;;;;;;;3.51;90.00;96266.09;1747933;79;20336;-85
2021/11/28 05:28:54;;;;;;;;;;;;;;;3.56;90.04;96258.33;1755073;79;25007;-85
2021/11/28 05:31:20;;;;;;;;;;;;;;;3.49;90.06;96253.27;1755901;79;21956;-85
2021/11/28 05:33:47;;;;;;;;;;;;;;;3.42;90.09;96249.52;1748371;81;25983;-85
2021/11/28 05:36:14;;;;;;;;;;;;;;;3.36;90.07;96251.28;1756025;79;25195;-84
2021/11/28 05:38:41;;;;;;;;;;;;;;;3.32;90.09;96242.12;1755766;80;20296;-85
2021/11/28 05:41:07;;;;;;;;;;;;;;;3.29;90.03;96243.63;1759581;80;24776;-85
2021/11/28 05:43:36;;;;;;;;;;;;;;;3.27;90.06;96247.61;1765182;80;21977;-85
2021/11/28 05:46:01;;;;;;;;;;;;;;;3.35;90.06;96251.75;1762771;80;27477;-84
2021/11/28 05:48:27;;;;;;;;;;;;;;;3.38;90.10;96234.70;1759663;80;25067;-85
2021/11/28 05:50:55;;;;;;;;;;;;;;;3.43;90.12;96240.84;1745450;79;20219;-85
2021/11/28 05:53:22;;;;;;;;;;;;;;;3.41;90.16;96240.12;1750618;79;24799;-85
2021/11/28 05:55:48;;;;;;;;;;;;;;;3.36;90.15;96243.05;1757553;81;22231;-84
2021/11/28 05:58:15;;;;;;;;;;;;;;;3.34;90.13;96234.58;1754581;80;26112;-85
2021/11/28 06:00:41;;;;;;;;;;;;;;;3.30;90.14;96229.30;1753775;80;24516;-84
2021/11/28 06:03:07;;;;;;;;;;;;;;;3.20;90.11;96231.41;1751713;80;20554;-85
2021/11/28 06:05:33;;;;;;;;;;;;;;;3.16;90.07;96236.00;1750761;80;25573;-86
2021/11/28 06:08:00;;;;;;;;;;;;;;;3.16;90.04;96235.17;1778660;80;22005;-86
2021/11/28 06:10:26;;;;;;;;;;;;;;;3.15;90.04;96241.27;1765933;79;26170;-85
2021/11/28 06:12:52;;;;;;;;;;;;;;;3.14;90.04;96240.45;1764614;80;24350;-85
2021/11/28 06:15:18;;;;;;;;;;;;;;;3.11;90.02;96234.70;1772067;80;20150;-85
2021/11/28 06:17:44;;;;;;;;;;;;;;;3.05;90.00;96229.98;1779806;78;24825;-84
2021/11/28 06:20:10;;;;;;;;;;;;;;;2.98;89.97;96224.92;1781014;79;21988;-84
2021/11/28 06:22:37;;;;;;;;;;;;;;;2.90;89.95;96221.14;1774247;79;25976;-84
2021/11/28 06:25:04;;;;;;;;;;;;;;;2.87;89.93;96225.72;1778053;80;25307;-84
2021/11/28 06:27:30;;;;;;;;;;;;;;;2.87;89.92;96213.63;1769063;78;20202;-83
2021/11/28 06:29:56;;;;;;;;;;;;;;;2.86;89.93;96214.56;1762952;80;24749;-85
2021/11/28 06:32:22;;;;;;;;;;;;;;;2.82;89.93;96213.16;1763951;80;22187;-84
2021/11/28 06:34:49;;;;;;;;;;;;;;;2.77;89.94;96207.51;1760558;79;26069;-84
2021/11/28 06:37:19;;;;;;;;;;;;;;;2.69;89.93;96204.66;1771994;79;24551;-83
2021/11/28 06:39:43;;;;;;;;;;;;;;;2.62;89.92;96205.24;1776377;79;20230;-84
2021/11/28 06:42:10;;;;;;;;;;;;;;;2.56;89.91;96205.69;1783595;79;25427;-84
2021/11/28 06:44:36;;;;;;;;;;;;;;;2.49;89.89;96204.02;1779934;79;22210;-84
2021/11/28 06:47:03;;;;;;;;;;;;;;;2.44;89.89;96204.36;1765483;80;25982;-85
2021/11/28 06:49:30;;;;;;;;;;;;;;;2.43;89.89;96201.88;1777875;80;24477;-84
2021/11/28 06:51:56;;;;;;;;;;;;;;;2.42;89.92;96204.10;1774724;80;20317;-84
2021/11/28 06:54:24;;;;;;;;;;;;;;;2.42;89.96;96207.98;1761473;80;25717;-84
2021/11/28 06:56:51;;;;;;;;;;;;;;;2.40;89.99;96204.70;1777159;80;23560;-84
2021/11/28 06:59:18;;;;;;;;;;;;;;;2.35;90.02;96205.48;1778858;80;26054;-84
2021/11/28 07:01:46;;;;;;;;;;;;;;;2.37;90.07;96211.36;1781292;80;24357;-84
2021/11/28 07:04:12;;;;;;;;;;;;;;;2.39;90.15;96203.88;1778295;79;20185;-84
2021/11/28 07:06:38;;;;;;;;;;;;;;;2.43;90.22;96204.47;1773979;79;24886;-84
2021/11/28 07:09:04;;;;;;;;;;;;;;;2.42;90.29;96197.66;1773303;80;22043;-84
2021/11/28 07:11:31;;;;;;;;;;;;;;;2.42;90.35;96189.91;1745427;80;26732;-85
2021/11/28 07:13:57;;;;;;;;;;;;;;;2.43;90.41;96185.11;1749225;79;24434;-84
2021/11/28 07:16:23;;;;;;;;;;;;;;;2.43;90.49;96177.36;1759731;80;20214;-84
2021/11/28 07:18:49;;;;;;;;;;;;;;;2.47;90.56;96183.94;1760083;80;24775;-85
2021/11/28 07:21:16;;;;;;;;;;;;;;;2.50;90.66;96179.86;1752939;79;20229;-84
2021/11/28 07:23:42;;;;;;;;;;;;;;;2.52;90.73;96169.76;1747110;81;25940;-84
2021/11/28 07:26:10;;;;;;;;;;;;;;;2.53;90.82;96162.38;1748345;79;25095;-85
2021/11/28 07:28:36;;;;;;;;;;;;;;;2.53;90.90;96162.84;1751250;81;20655;-85
2021/11/28 07:31:02;;;;;;;;;;;;;;;2.57;90.96;96153.92;1758357;79;24723;-85
2021/11/28 07:33:29;;;;;;;;;;;;;;;2.61;91.05;96155.83;1753205;79;22666;-85
2021/11/28 07:35:58;;;;;;;;;;;;;;;2.67;91.16;96165.70;1759531;80;26165;-85
2021/11/28 07:38:24;;;;;;;;;;;;;;;2.69;91.25;96159.47;1758440;80;24730;-85
2021/11/28 07:40:51;;;;;;;;;;;;;;;2.74;91.37;96171.56;1738682;81;20283;-85
2021/11/28 07:43:17;;;;;;;;;;;;;;;2.77;91.44;96178.27;1760658;80;25654;-85
2021/11/28 07:45:43;;;;;;;;;;;;;;;2.79;91.55;96178.50;1762074;80;21988;-86
2021/11/28 07:48:10;;;;;;;;;;;;;;;2.83;91.63;96175.23;1760119;80;26046;-85
2021/11/28 07:50:36;;;;;;;;;;;;;;;2.86;91.73;96173.70;1766158;80;24544;-85
2021/11/28 07:53:02;;;;;;;;;;;;;;;2.87;91.81;96177.47;1760282;80;20285;-85
2021/11/28 07:55:29;;;;;;;;;;;;;;;2.88;91.88;96176.54;1770409;80;24738;-85
2021/11/28 07:57:55;;;;;;;;;;;;;;;2.94;91.98;96177.84;1774709;80;22848;-84
2021/11/28 08:00:21;;;;;;;;;;;;;;;3.02;92.09;96170.31;1779590;79;25991;-84
2021/11/28 08:02:48;;;;;;;;;;;;;;;3.07;92.18;96164.32;1783377;80;24541;-86
2021/11/28 08:05:14;;;;;;;;;;;;;;;3.09;92.27;96164.21;1770450;80;20257;-85
2021/11/28 08:07:40;;;;;;;;;;;;;;;3.17;92.37;96167.02;1762784;80;24763;-84
2021/11/28 08:10:07;;;;;;;;;;;;;;;3.23;92.46;96173.02;1761595;80;22142;-85
2021/11/28 08:12:33;;;;;;;;;;;;;;;3.28;92.55;96166.55;1772248;80;27026;-85
2021/11/28 08:14:59;;;;;;;;;;;;;;;3.31;92.64;96168.92;1776316;79;24653;-85
2021/11/28 08:17:25;;;;;;;;;;;;;;;3.29;92.71;96166.91;1761404;80;20271;-84
2021/11/28 08:19:51;;;;;;;;;;;;;;;3.32;92.78;96171.03;1766295;80;24833;-85
2021/11/28 08:22:18;;;;;;;;;;;;;;;3.38;92.83;96178.78;1766950;80;22222;-85
2021/11/28 08:24:44;;;;;;;;;;;;;;;3.43;92.91;96176.20;1766888;80;26125;-85
2021/11/28 08:27:11;;;;;;;;;;;;;;;3.44;92.97;96181.70;1781678;79;24550;-84
2021/11/28 08:29:38;;;;;;;;;;;;;;;3.43;93.01;96179.25;1772628;80;20207;-84
2021/11/28 08:32:04;;;;;;;;;;;;;;;3.44;93.06;96179.11;1780514;79;24844;-84
2021/11/28 08:34:30;;;;;;;;;;;;;;;3.47;93.09;96176.77;1773506;80;22646;-84
2021/11/28 08:36:59;;;;;;;;;;;;;;;3.52;93.14;96184.99;1778345;80;22157;-84
2021/11/28 08:39:25;;;;;;;;;;;;;;;3.59;93.21;96189.58;1771149;80;25435;-84
2021/11/28 08:41:51;;;;;;;;;;;;;;;3.66;93.27;96188.14;1780791;80;20279;-84
2021/11/28 08:44:23;;;;;;;;;;;;;;;3.69;93.33;96186.62;1772436;80;25598;-84
2021/11/28 08:46:48;;;;;;;;;;;;;;;3.75;93.38;96184.03;1756191;80;22114;-85
2021/11/28 08:49:15;;;;;;;;;;;;;;;3.76;93.44;96189.06;1773079;80;21116;-86
2021/11/28 08:51:41;;;;;;;;;;;;;;;3.78;93.47;96187.19;1763950;80;24536;-86
2021/11/28 08:54:07;;;;;;;;;;;;;;;3.87;93.51;96180.95;1765296;80;20221;-87
2021/11/28 08:56:33;;;;;;;;;;;;;;;3.94;93.57;96169.97;1765144;80;24726;-85
2021/11/28 08:58:59;;;;;;;;;;;;;;;3.95;93.63;96170.33;1782254;80;22035;-85
2021/11/28 09:01:31;;;;;;;;;;;;;;;3.96;93.67;96169.86;1765907;80;26056;-85
2021/11/28 09:03:58;;;;;;;;;;;;;;;3.94;93.66;96169.16;1781203;80;24593;-85
2021/11/28 09:06:24;;;;;;;;;;;;;;;3.98;93.67;96170.58;1744797;80;20237;-85
2021/11/28 09:08:50;;;;;;;;;;;;;;;3.94;93.67;96171.73;1769115;80;24777;-87
2021/11/28 09:11:16;;;;;;;;;;;;;;;3.96;93.68;96168.56;1784277;80;22145;-85
2021/11/28 09:13:43;;;;;;;;;;;;;;;3.94;93.69;96163.51;1770981;79;25963;-85
2021/11/28 09:16:11;;;;;;;;;;;;;;;3.93;93.71;96158.48;1763157;80;24407;-86
2021/11/28 09:18:44;;;;;;;;;;;;;;;3.88;93.73;96159.28;1772078;80;20214;-84
2021/11/28 09:21:06;;;;;;;;;;;;;;;3.85;93.72;96151.78;1774461;80;24882;-85
2021/11/28 09:26:17;;;;;;;;;;;;;;;3.90;93.75;96149.64;1765690;79;25874;-85
2021/11/28 09:28:43;;;;;;;;;;;;;;;3.90;93.79;96139.30;1759519;79;24465;-85
2021/11/28 09:31:10;;;;;;;;;;;;;;;3.89;93.78;96133.77;1761215;81;20230;-85
2021/11/28 09:33:41;;;;;;;;;;;;;;;3.83;93.80;96122.14;1758126;80;24921;-85
2021/11/28 09:36:07;;;;;;;;;;;;;;;3.79;93.79;96112.99;1768369;80;22020;-85
2021/11/28 09:38:33;;;;;;;;;;;;;;;3.76;93.79;96119.22;1778041;80;26135;-85
2021/11/28 09:41:07;;;;;;;;;;;;;;;3.74;93.79;96121.13;1772629;79;24512;-85
2021/11/28 09:43:34;;;;;;;;;;;;;;;3.71;93.82;96116.65;1761670;80;20277;-85
2021/11/28 09:46:02;;;;;;;;;;;;;;;3.68;93.78;96115.61;1769111;79;24788;-85
2021/11/28 09:48:35;;;;;;;;;;;;;;;3.63;93.81;96109.98;1782637;79;22819;-85
2021/11/28 09:51:05;;;;;;;;;;;;;;;3.60;93.80;96111.03;1784617;79;26696;-85
2021/11/28 09:53:32;;;;;;;;;;;;;;;3.57;93.80;96106.13;1762257;79;24544;-85
2021/11/28 09:56:01;;;;;;;;;;;;;;;3.56;93.80;96099.77;1733935;80;20177;-85
2021/11/28 09:58:28;;;;;;;;;;;;;;;3.52;93.81;96095.79;1763569;80;24773;-85
2021/11/28 10:00:56;;;;;;;;;;;;;;;3.53;93.84;96098.27;1763426;80;22090;-86
2021/11/28 10:03:22;;;;;;;;;;;;;;;3.52;93.87;96090.15;1763089;79;26729;-85
2021/11/28 10:05:50;;;;;;;;;;;;;;;3.49;93.89;96087.00;1762207;81;24418;-85
2021/11/28 10:08:17;;;;;;;;;;;;;;;3.48;93.92;96082.77;1779317;79;20213;-85
2021/11/28 10:10:48;;;;;;;;;;;;;;;3.45;93.93;96077.81;1782330;79;24976;-85
2021/11/28 10:13:14;;;;;;;;;;;;;;;3.41;93.96;96069.49;1777938;79;21798;-85
2021/11/28 10:15:40;;;;;;;;;;;;;;;3.41;93.99;96073.38;1761095;79;25938;-85
2021/11/28 10:18:09;;;;;;;;;;;;;;;3.36;94.00;96062.58;1764742;79;24467;-85
2021/11/28 10:20:37;;;;;;;;;;;;;;;3.33;94.05;96062.33;1792711;77;20144;-85
2021/11/28 10:23:03;;;;;;;;;;;;;;;3.29;94.04;96054.94;1761107;78;24792;-87
2021/11/28 10:25:31;;;;;;;;;;;;;;;3.24;94.07;96050.14;1774804;80;20287;-85
2021/11/28 10:28:05;;;;;;;;;;;;;;;3.20;94.09;96046.63;1778857;79;26231;-86
2021/11/28 10:30:36;;;;;;;;;;;;;;;3.17;94.11;96036.52;1776740;80;24639;-86
2021/11/28 10:33:06;;;;;;;;;;;;;;;3.14;94.16;96035.48;1771063;80;20200;-87
2021/11/28 10:35:33;;;;;;;;;;;;;;;3.11;94.19;96026.19;1772913;80;24872;-86
2021/11/28 10:38:02;;;;;;;;;;;;;;;3.12;94.23;96024.44;1758193;81;22004;-86
2021/11/28 10:40:32;;;;;;;;;;;;;;;3.11;94.30;96027.48;1736254;82;26054;-85
2021/11/28 10:43:11;;;;;;;;;;;;;;;3.10;94.35;96019.41;1752276;80;24443;-86
2021/11/28 10:45:38;;;;;;;;;;;;;;;3.09;94.42;96024.69;1752566;80;20138;-85
2021/11/28 10:48:07;;;;;;;;;;;;;;;3.07;94.49;96023.51;1729757;79;24769;-85
2021/11/28 10:50:35;;;;;;;;;;;;;;;3.09;94.57;96015.64;1757089;80;22088;-85
2021/11/28 10:53:05;;;;;;;;;;;;;;;3.08;94.60;96021.28;1759844;80;25977;-85
2021/11/28 10:55:33;;;;;;;;;;;;;;;3.09;94.71;96013.06;1745355;80;24452;-85
2021/11/28 10:58:08;;;;;;;;;;;;;;;3.11;94.78;96009.90;1758568;80;20388;-86
2021/11/28 11:00:39;;;;;;;;;;;;;;;3.12;94.86;96003.77;1752789;80;24754;-86
2021/11/28 11:03:21;;;;;;;;;;;;;;;3.12;94.93;96000.71;1759329;80;22799;-86
2021/11/28 11:05:49;;;;;;;;;;;;;;;3.16;95.01;95993.56;1746685;79;25994;-86
2021/11/28 11:08:16;;;;;;;;;;;;;;;3.16;95.11;95995.67;1761233;80;24422;-86
2021/11/28 11:10:45;;;;;;;;;;;;;;;3.16;95.17;95990.97;1730893;81;20215;-86
2021/11/28 11:13:15;;;;;;;;;;;;;;;3.17;95.24;95986.95;1772008;79;20443;-86
2021/11/28 11:15:46;;;;;;;;;;;;;;;3.22;95.33;95981.41;1746943;79;22978;-86
2021/11/28 11:18:16;;;;;;;;;;;;;;;3.22;95.40;95975.78;1756729;81;26674;-85
2021/11/28 11:20:47;;;;;;;;;;;;;;;3.23;95.47;95974.02;1756500;81;25157;-84
2021/11/28 11:23:32;;;;;;;;;;;;;;;3.21;95.53;95971.58;1760906;81;20253;-85
2021/11/28 11:26:16;;;;;;;;;;;;;;;3.20;95.58;95965.23;1760739;80;24867;-85
2021/11/28 11:29:04;;;;;;;;;;;;;;;3.18;95.62;95968.39;1752354;80;21999;-85
2021/11/28 11:31:33;;;;;;;;;;;;;;;3.21;95.69;95965.58;1755019;79;27044;-85
2021/11/28 11:33:59;;;;;;;;;;;;;;;3.20;95.75;95966.05;1756792;80;24637;-85
2021/11/28 11:36:44;;;;;;;;;;;;;;;3.23;95.80;95961.09;1746040;80;21352;-85
2021/11/28 11:39:10;;;;;;;;;;;;;;;3.23;95.86;95962.39;1743617;81;24794;-86
2021/11/28 11:41:37;;;;;;;;;;;;;;;3.23;95.95;95960.63;1770538;80;21987;-86
2021/11/28 11:44:03;;;;;;;;;;;;;;;3.25;95.96;95950.17;1776404;80;26108;-85
2021/11/28 11:46:30;;;;;;;;;;;;;;;3.27;96.05;95948.30;1781457;79;24553;-86
2021/11/28 11:48:58;;;;;;;;;;;;;;;3.34;96.14;95946.84;1779724;79;20389;-86
2021/11/28 11:51:25;;;;;;;;;;;;;;;3.40;96.20;95943.77;1775546;79;26324;-86
2021/11/28 11:53:56;;;;;;;;;;;;;;;3.46;96.28;95940.68;1769954;79;22086;-86
2021/11/28 11:56:24;;;;;;;;;;;;;;;3.52;96.37;95939.36;1768882;79;26840;-86
2021/11/28 11:58:51;;;;;;;;;;;;;;;3.58;96.44;95937.57;1800700;77;24778;-85
2021/11/28 12:01:27;;;;;;;;;;;;;;;3.63;96.53;95932.38;1777640;80;20264;-85
2021/11/28 12:03:52;;;;;;;;;;;;;;;3.66;96.61;95933.40;1779012;79;24825;-86
2021/11/28 12:06:37;;;;;;;;;;;;;;;3.70;96.69;95930.93;1773342;79;22058;-85
2021/11/28 12:09:03;;;;;;;;;;;;;;;3.76;96.73;95929.10;1773061;79;26005;-86
2021/11/28 12:11:31;;;;;;;;;;;;;;;3.74;96.79;95928.43;1773409;79;24458;-87
2021/11/28 12:13:58;;;;;;;;;;;;;;;3.80;96.85;95928.39;1767726;80;20310;-87
2021/11/28 12:16:26;;;;;;;;;;;;;;;3.85;96.91;95934.48;1769633;80;24788;-87
2021/11/28 12:18:54;;;;;;;;;;;;;;;3.91;96.96;95933.50;1769127;79;21995;-87
2021/11/28 12:21:21;;;;;;;;;;;;;;;4.02;96.98;95938.60;1779017;79;25475;-87
2021/11/28 12:23:52;;;;;;;;;;;;;;;4.14;97.06;95936.28;1763057;80;24519;-87
2021/11/28 12:26:30;;;;;;;;;;;;;;;4.28;97.14;95931.70;1766001;80;20634;-87
2021/11/28 12:28:57;;;;;;;;;;;;;;;4.39;97.27;95934.20;1768244;80;24968;-87
2021/11/28 12:31:25;;;;;;;;;;;;;;;4.52;97.34;95927.86;1777444;80;21501;-87
2021/11/28 12:33:53;;;;;;;;;;;;;;;4.61;97.45;95917.98;1775025;80;25499;-87
2021/11/28 12:36:24;;;;;;;;;;;;;;;4.70;97.51;95912.47;1772537;80;24586;-87
2021/11/28 12:38:50;;;;;;;;;;;;;;;4.78;97.54;95906.64;1753034;79;20379;-87
2021/11/28 12:41:16;;;;;;;;;;;;;;;4.83;97.63;95901.88;1770990;80;24723;-86
2021/11/28 12:43:44;;;;;;;;;;;;;;;4.78;97.62;95916.53;1779092;78;20441;-86
2021/11/28 12:46:10;;;;;;;;;;;;;;;4.63;97.61;95903.14;1775082;78;26690;-86
2021/11/28 12:48:36;;;;;;;;;;;;;;;4.54;97.52;95908.28;1772238;79;24581;-86
2021/11/28 12:51:04;;;;;;;;;;;;;;;4.46;97.45;95920.61;1772104;80;20217;-86
2021/11/28 12:53:32;;;;;;;;;;;;;;;4.43;97.36;95931.68;1769681;79;24848;-86
2021/11/28 12:56:12;;;;;;;;;;;;;;;4.49;97.30;95927.28;1769218;79;22046;-87
2021/11/28 12:58:57;;;;;;;;;;;;;;;4.62;97.29;95934.35;1778777;78;25950;-87
2021/11/28 13:01:42;;;;;;;;;;;;;;;4.79;97.30;95935.48;1765060;80;24687;-87
2021/11/28 13:04:09;;;;;;;;;;;;;;;4.86;97.27;95933.98;1772851;80;20265;-87